Time;durP1;ratioP1;P1;durP2;ratioP2;P2;SDS_P1;SDS_P2;PMS_P1;PMS_P2;Temp;Humidity;BMP_temperature;BMP_pressure;BME280_temperature;BME280_humidity;BME280_pressure;Samples;Min_cycle;Max_cycle;Signal;HPM_P1;HPM_P2
2022/12/13 00:02:12;;;;;;;0.00;0.00;;;;;;;;;;5046538;28;20052;-73
2022/12/13 00:04:39;;;;;;;0.00;0.00;;;;;;;;;;5033887;28;20417;-73
2022/12/13 00:07:05;;;;;;;0.00;0.00;;;;;;;;;;5035097;28;20049;-73
2022/12/13 00:09:31;;;;;;;0.00;0.00;;;;;;;;;;5041665;28;20112;-73
2022/12/13 00:11:58;;;;;;;0.00;0.00;;;;;;;;;;5045092;28;20479;-73
2022/12/13 00:14:24;;;;;;;0.00;0.00;;;;;;;;;;5053638;28;20387;-73
2022/12/13 00:16:50;;;;;;;0.00;0.00;;;;;;;;;;5038487;28;20480;-73
2022/12/13 00:19:17;;;;;;;0.00;0.00;;;;;;;;;;5039200;28;20033;-73
2022/12/13 00:21:44;;;;;;;0.00;0.00;;;;;;;;;;5049189;28;20053;-73
2022/12/13 00:24:10;;;;;;;0.00;0.00;;;;;;;;;;5034790;28;20475;-72
2022/12/13 00:26:36;;;;;;;0.00;0.00;;;;;;;;;;5034759;28;20022;-73
2022/12/13 00:29:04;;;;;;;0.00;0.00;;;;;;;;;;5033485;28;20018;-73
2022/12/13 00:31:31;;;;;;;0.00;0.00;;;;;;;;;;5047955;28;20032;-74
2022/12/13 00:33:58;;;;;;;0.00;0.00;;;;;;;;;;5053697;28;20514;-74
2022/12/13 00:36:25;;;;;;;0.00;0.00;;;;;;;;;;5053378;28;20032;-72
2022/12/13 00:38:59;;;;;;;0.00;0.00;;;;;;;;;;5053307;28;20111;-71
2022/12/13 00:41:27;;;;;;;0.00;0.00;;;;;;;;;;5053151;28;20104;-72
2022/12/13 00:43:53;;;;;;;0.00;0.00;;;;;;;;;;5054694;28;20021;-73
2022/12/13 00:46:21;;;;;;;0.00;0.00;;;;;;;;;;5052920;28;20017;-73
2022/12/13 00:48:54;;;;;;;0.00;0.00;;;;;;;;;;5048397;28;20021;-73
2022/12/13 00:51:21;;;;;;;0.00;0.00;;;;;;;;;;5049388;28;20017;-73
2022/12/13 00:53:48;;;;;;;0.00;0.00;;;;;;;;;;5042194;28;20037;-73
2022/12/13 00:56:15;;;;;;;0.00;0.00;;;;;;;;;;5034182;28;20021;-73
2022/12/13 00:58:42;;;;;;;0.00;0.00;;;;;;;;;;5034142;28;20391;-73
2022/12/13 01:01:13;;;;;;;0.00;0.00;;;;;;;;;;5032774;28;20608;-72
2022/12/13 01:03:39;;;;;;;0.00;0.00;;;;;;;;;;5050287;28;20031;-72
2022/12/13 01:06:13;;;;;;;0.00;0.00;;;;;;;;;;5041608;28;20387;-74
2022/12/13 01:08:40;;;;;;;0.00;0.00;;;;;;;;;;5050981;28;20021;-73
2022/12/13 01:11:07;;;;;;;0.00;0.00;;;;;;;;;;5044121;28;20036;-75
2022/12/13 01:13:33;;;;;;;0.00;0.00;;;;;;;;;;5039141;28;20120;-74
2022/12/13 01:16:01;;;;;;;0.00;0.00;;;;;;;;;;5040423;28;20082;-72
2022/12/13 01:18:28;;;;;;;0.00;0.00;;;;;;;;;;5041001;28;20036;-72
2022/12/13 01:21:01;;;;;;;0.00;0.00;;;;;;;;;;5040553;28;20503;-73
2022/12/13 01:23:28;;;;;;;0.00;0.00;;;;;;;;;;5026492;28;20510;-73
2022/12/13 01:25:55;;;;;;;0.00;0.00;;;;;;;;;;5029134;28;20048;-75
2022/12/13 01:28:21;;;;;;;0.00;0.00;;;;;;;;;;5048031;28;20025;-73
2022/12/13 01:30:58;;;;;;;0.00;0.00;;;;;;;;;;5027893;28;20033;-72
2022/12/13 01:33:24;;;;;;;0.00;0.00;;;;;;;;;;5047552;28;20033;-72
2022/12/13 01:35:51;;;;;;;0.00;0.00;;;;;;;;;;5045683;28;20021;-72
2022/12/13 01:38:17;;;;;;;0.00;0.00;;;;;;;;;;5033059;28;20032;-72
2022/12/13 01:40:45;;;;;;;0.00;0.00;;;;;;;;;;5030690;28;20542;-73
2022/12/13 01:43:15;;;;;;;0.00;0.00;;;;;;;;;;5051458;28;20025;-71
2022/12/13 01:45:41;;;;;;;0.00;0.00;;;;;;;;;;5034753;28;20025;-71
2022/12/13 01:48:14;;;;;;;0.00;0.00;;;;;;;;;;5033452;28;20013;-71
2022/12/13 01:50:43;;;;;;;0.00;0.00;;;;;;;;;;5035152;28;20032;-72
2022/12/13 01:53:13;;;;;;;0.00;0.00;;;;;;;;;;5032502;28;20032;-72
2022/12/13 01:55:42;;;;;;;0.00;0.00;;;;;;;;;;5034615;28;20044;-72
2022/12/13 01:58:10;;;;;;;0.00;0.00;;;;;;;;;;5047663;28;20025;-72
2022/12/13 02:00:36;;;;;;;0.00;0.00;;;;;;;;;;5031969;28;20118;-72
2022/12/13 02:03:03;;;;;;;0.00;0.00;;;;;;;;;;5028670;28;20120;-72
2022/12/13 02:05:35;;;;;;;0.00;0.00;;;;;;;;;;5023559;28;20025;-73
2022/12/13 02:08:02;;;;;;;0.00;0.00;;;;;;;;;;5030505;28;20025;-72
2022/12/13 02:10:29;;;;;;;0.00;0.00;;;;;;;;;;5047298;28;20090;-75
2022/12/13 02:12:55;;;;;;;0.00;0.00;;;;;;;;;;5030318;28;20120;-72
2022/12/13 02:15:22;;;;;;;0.00;0.00;;;;;;;;;;5029616;28;20021;-72
2022/12/13 02:17:54;;;;;;;0.00;0.00;;;;;;;;;;5033816;28;20087;-72
2022/12/13 02:20:30;;;;;;;0.00;0.00;;;;;;;;;;5031986;28;20036;-71
2022/12/13 02:23:05;;;;;;;0.00;0.00;;;;;;;;;;5027780;28;20033;-72
2022/12/13 02:25:38;;;;;;;0.00;0.00;;;;;;;;;;5028681;28;20044;-76
2022/12/13 02:28:23;;;;;;;0.00;0.00;;;;;;;;;;5028433;28;20029;-73
2022/12/13 02:30:54;;;;;;;0.00;0.00;;;;;;;;;;5040413;28;20032;-72
2022/12/13 02:33:29;;;;;;;0.00;0.00;;;;;;;;;;5024429;28;20025;-73
2022/12/13 02:36:11;;;;;;;0.00;0.00;;;;;;;;;;5025278;28;20041;-72
2022/12/13 02:38:49;;;;;;;0.00;0.00;;;;;;;;;;5027729;28;20049;-73
2022/12/13 02:41:36;;;;;;;0.00;0.00;;;;;;;;;;5024530;28;20100;-73
2022/12/13 02:44:23;;;;;;;0.00;0.00;;;;;;;;;;5047896;28;20032;-73
2022/12/13 02:46:56;;;;;;;0.00;0.00;;;;;;;;;;5028742;28;20426;-75
2022/12/13 02:49:23;;;;;;;0.00;0.00;;;;;;;;;;5047194;28;20506;-75
2022/12/13 02:51:50;;;;;;;0.00;0.00;;;;;;;;;;5046543;28;20151;-73
2022/12/13 02:54:17;;;;;;;0.00;0.00;;;;;;;;;;5024208;28;20462;-74
2022/12/13 02:56:53;;;;;;;0.00;0.00;;;;;;;;;;5032951;28;20384;-72
2022/12/13 02:59:19;;;;;;;0.00;0.00;;;;;;;;;;5030723;28;20114;-71
2022/12/13 03:01:57;;;;;;;0.00;0.00;;;;;;;;;;5046873;28;20021;-73
2022/12/13 03:06:28;;;;;;;0.00;0.00;;;;;;;;;;5027057;28;20115;-73
2022/12/13 03:07:33;;;;;;;0.00;0.00;;;;;;;;;;5048100;28;20029;-72
2022/12/13 03:10:04;;;;;;;0.00;0.00;;;;;;;;;;5046258;28;20028;-73
2022/12/13 03:15:33;;;;;;;0.00;0.00;;;;;;;;;;5049888;28;20044;-71
2022/12/13 03:18:14;;;;;;;0.00;0.00;;;;;;;;;;5028877;28;20041;-72
2022/12/13 03:20:44;;;;;;;0.00;0.00;;;;;;;;;;5025609;28;20056;-72
2022/12/13 03:23:11;;;;;;;0.00;0.00;;;;;;;;;;5010583;28;20034;-72
2022/12/13 03:25:37;;;;;;;0.00;0.00;;;;;;;;;;5025200;28;20045;-72
2022/12/13 03:28:04;;;;;;;0.00;0.00;;;;;;;;;;5007923;28;20120;-71
2022/12/13 03:30:31;;;;;;;0.00;0.00;;;;;;;;;;5027276;28;20056;-73
2022/12/13 03:32:57;;;;;;;0.00;0.00;;;;;;;;;;5009556;28;20032;-71
2022/12/13 03:35:26;;;;;;;0.00;0.00;;;;;;;;;;5021739;28;20479;-74
2022/12/13 03:37:52;;;;;;;0.00;0.00;;;;;;;;;;5028461;28;20029;-76
2022/12/13 03:40:19;;;;;;;0.00;0.00;;;;;;;;;;5023438;28;20033;-82
2022/12/13 03:42:46;;;;;;;0.00;0.00;;;;;;;;;;5007259;28;20049;-80
2022/12/13 03:45:13;;;;;;;0.00;0.00;;;;;;;;;;5028639;28;20029;-80
2022/12/13 03:47:39;;;;;;;0.00;0.00;;;;;;;;;;5009117;28;20076;-75
2022/12/13 03:50:06;;;;;;;0.00;0.00;;;;;;;;;;5008651;28;20387;-78
2022/12/13 03:52:32;;;;;;;0.00;0.00;;;;;;;;;;5011798;28;20030;-75
2022/12/13 03:54:58;;;;;;;0.00;0.00;;;;;;;;;;5008269;28;20450;-75
2022/12/13 03:57:25;;;;;;;0.00;0.00;;;;;;;;;;5023151;28;20025;-75
2022/12/13 03:59:51;;;;;;;0.00;0.00;;;;;;;;;;5007747;28;20498;-75
2022/12/13 04:02:17;;;;;;;0.00;0.00;;;;;;;;;;5008651;28;20499;-75
2022/12/13 04:04:43;;;;;;;0.00;0.00;;;;;;;;;;5008386;28;20033;-72
2022/12/13 04:07:10;;;;;;;0.00;0.00;;;;;;;;;;5009885;28;20434;-72
2022/12/13 04:09:36;;;;;;;0.00;0.00;;;;;;;;;;5026788;28;20049;-71
2022/12/13 04:14:47;;;;;;;0.00;0.00;;;;;;;;;;5026916;28;20024;-73
2022/12/13 04:17:14;;;;;;;0.00;0.00;;;;;;;;;;5008337;28;20112;-77
2022/12/13 04:19:40;;;;;;;0.00;0.00;;;;;;;;;;5007027;28;20088;-75
2022/12/13 04:22:06;;;;;;;0.00;0.00;;;;;;;;;;5040122;28;20094;-74
2022/12/13 04:24:33;;;;;;;0.00;0.00;;;;;;;;;;5043115;28;20032;-74
2022/12/13 04:27:00;;;;;;;0.00;0.00;;;;;;;;;;5041291;28;20052;-75
2022/12/13 04:29:26;;;;;;;0.00;0.00;;;;;;;;;;5047795;28;20659;-70
2022/12/13 04:31:53;;;;;;;0.00;0.00;;;;;;;;;;5052126;28;20017;-70
2022/12/13 04:34:19;;;;;;;0.00;0.00;;;;;;;;;;5049515;28;20399;-71
2022/12/13 04:36:45;;;;;;;0.00;0.00;;;;;;;;;;5045828;28;20033;-71
2022/12/13 04:39:12;;;;;;;0.00;0.00;;;;;;;;;;5044103;28;20025;-70
2022/12/13 04:41:39;;;;;;;0.00;0.00;;;;;;;;;;5036361;28;20712;-72
2022/12/13 04:44:07;;;;;;;0.00;0.00;;;;;;;;;;5041558;28;20033;-73
2022/12/13 04:46:33;;;;;;;0.00;0.00;;;;;;;;;;5047257;28;20032;-70
2022/12/13 04:49:00;;;;;;;0.00;0.00;;;;;;;;;;5040487;28;20044;-73
2022/12/13 04:51:26;;;;;;;0.00;0.00;;;;;;;;;;5040373;28;20505;-69
2022/12/13 04:53:52;;;;;;;0.00;0.00;;;;;;;;;;5042912;28;20043;-70
2022/12/13 04:56:19;;;;;;;0.00;0.00;;;;;;;;;;5043852;28;20449;-71
2022/12/13 04:58:45;;;;;;;0.00;0.00;;;;;;;;;;5041587;28;20455;-69
2022/12/13 05:01:12;;;;;;;0.00;0.00;;;;;;;;;;5063167;28;20025;-70
2022/12/13 05:03:38;;;;;;;0.00;0.00;;;;;;;;;;5050603;28;20115;-70
2022/12/13 05:06:05;;;;;;;0.00;0.00;;;;;;;;;;5050307;28;20024;-69
2022/12/13 05:08:32;;;;;;;0.00;0.00;;;;;;;;;;5046266;28;20071;-70
2022/12/13 05:10:58;;;;;;;0.00;0.00;;;;;;;;;;5046585;28;20379;-72
2022/12/13 05:13:24;;;;;;;0.00;0.00;;;;;;;;;;5046114;28;20029;-70
2022/12/13 05:15:55;;;;;;;0.00;0.00;;;;;;;;;;5043606;28;20114;-72
2022/12/13 05:18:21;;;;;;;0.00;0.00;;;;;;;;;;5044040;28;20055;-71
2022/12/13 05:20:49;;;;;;;0.00;0.00;;;;;;;;;;5041230;28;20048;-70
2022/12/13 05:23:16;;;;;;;0.00;0.00;;;;;;;;;;5022728;28;20021;-70
2022/12/13 05:25:43;;;;;;;0.00;0.00;;;;;;;;;;5040760;28;20025;-71
2022/12/13 05:28:09;;;;;;;0.00;0.00;;;;;;;;;;5039772;28;20029;-70
2022/12/13 05:30:39;;;;;;;0.00;0.00;;;;;;;;;;5040715;28;20101;-73
2022/12/13 05:33:06;;;;;;;0.00;0.00;;;;;;;;;;5043248;28;20048;-75
2022/12/13 05:35:32;;;;;;;0.00;0.00;;;;;;;;;;5019816;28;20030;-70
2022/12/13 05:37:59;;;;;;;0.00;0.00;;;;;;;;;;5028679;28;20506;-70
2022/12/13 05:40:26;;;;;;;0.00;0.00;;;;;;;;;;5040744;28;20040;-70
2022/12/13 05:42:52;;;;;;;0.00;0.00;;;;;;;;;;5019768;28;20028;-73
2022/12/13 05:45:19;;;;;;;0.00;0.00;;;;;;;;;;5019597;28;20029;-70
2022/12/13 05:47:46;;;;;;;0.00;0.00;;;;;;;;;;5023814;28;20029;-71
2022/12/13 05:50:13;;;;;;;0.10;0.10;;;;;;;;;;5040717;28;20494;-70
2022/12/13 05:52:39;;;;;;;0.00;0.00;;;;;;;;;;5043880;28;20510;-70
2022/12/13 05:55:06;;;;;;;0.00;0.00;;;;;;;;;;5045497;28;20033;-70
2022/12/13 05:57:32;;;;;;;0.00;0.00;;;;;;;;;;5039765;28;20357;-70
2022/12/13 05:59:59;;;;;;;0.00;0.00;;;;;;;;;;5021679;28;20102;-71
2022/12/13 06:02:25;;;;;;;0.00;0.00;;;;;;;;;;5021336;28;20036;-69
2022/12/13 06:04:51;;;;;;;0.00;0.00;;;;;;;;;;5038306;28;20029;-69
2022/12/13 06:07:17;;;;;;;0.00;0.00;;;;;;;;;;5036423;28;20104;-69
2022/12/13 06:09:44;;;;;;;0.00;0.00;;;;;;;;;;5040092;28;20024;-70
2022/12/13 06:12:10;;;;;;;0.00;0.00;;;;;;;;;;5039341;28;20086;-71
2022/12/13 06:14:37;;;;;;;0.00;0.00;;;;;;;;;;5022311;28;20116;-69
2022/12/13 06:17:03;;;;;;;0.00;0.00;;;;;;;;;;5029420;28;20093;-68
2022/12/13 06:19:29;;;;;;;0.00;0.00;;;;;;;;;;5027689;28;20039;-68
2022/12/13 06:21:56;;;;;;;0.00;0.00;;;;;;;;;;5035082;28;20060;-70
2022/12/13 06:24:23;;;;;;;0.00;0.00;;;;;;;;;;5045939;28;20047;-69
2022/12/13 06:26:50;;;;;;;0.00;0.00;;;;;;;;;;5049091;28;20040;-68
2022/12/13 06:29:18;;;;;;;0.00;0.00;;;;;;;;;;5045532;28;20647;-68
2022/12/13 06:31:44;;;;;;;0.00;0.00;;;;;;;;;;5046109;28;20506;-71
2022/12/13 06:34:10;;;;;;;0.00;0.00;;;;;;;;;;5050476;28;20044;-69
2022/12/13 06:36:37;;;;;;;0.00;0.00;;;;;;;;;;5048510;28;20033;-69
2022/12/13 06:39:04;;;;;;;0.03;0.03;;;;;;;;;;5046558;28;20039;-72
2022/12/13 06:41:30;;;;;;;0.00;0.00;;;;;;;;;;5046276;28;20112;-77
2022/12/13 06:43:57;;;;;;;0.10;0.10;;;;;;;;;;5045689;28;20029;-74
2022/12/13 06:46:23;;;;;;;0.00;0.00;;;;;;;;;;5042465;28;20533;-75
2022/12/13 06:48:49;;;;;;;0.00;0.00;;;;;;;;;;5046946;28;20025;-76
2022/12/13 06:51:16;;;;;;;0.00;0.00;;;;;;;;;;5043458;28;20021;-76
2022/12/13 06:53:42;;;;;;;0.10;0.10;;;;;;;;;;5042912;28;20025;-78
2022/12/13 06:56:10;;;;;;;0.10;0.10;;;;;;;;;;5048256;28;20037;-77
2022/12/13 06:58:36;;;;;;;0.10;0.10;;;;;;;;;;5047865;28;20036;-76
2022/12/13 07:01:07;;;;;;;0.07;0.07;;;;;;;;;;5046068;28;20036;-77
2022/12/13 07:03:35;;;;;;;0.00;0.00;;;;;;;;;;5044343;28;20464;-73
2022/12/13 07:06:06;;;;;;;0.10;0.10;;;;;;;;;;5046391;28;20032;-71
2022/12/13 07:08:32;;;;;;;0.00;0.00;;;;;;;;;;5041550;28;20021;-69
2022/12/13 07:10:59;;;;;;;0.10;0.10;;;;;;;;;;5035738;28;20678;-70
2022/12/13 07:13:25;;;;;;;0.00;0.00;;;;;;;;;;5038112;28;20033;-68
2022/12/13 07:15:51;;;;;;;0.00;0.00;;;;;;;;;;5045304;28;20050;-71
2022/12/13 07:18:18;;;;;;;0.10;0.10;;;;;;;;;;5045104;28;20033;-70
2022/12/13 07:20:44;;;;;;;0.00;0.00;;;;;;;;;;5043746;28;20124;-70
2022/12/13 07:23:11;;;;;;;0.10;0.10;;;;;;;;;;5038603;28;20036;-71
2022/12/13 07:25:38;;;;;;;0.07;0.07;;;;;;;;;;5025351;28;20018;-68
2022/12/13 07:28:05;;;;;;;0.00;0.00;;;;;;;;;;5041254;28;20013;-70
2022/12/13 07:30:37;;;;;;;0.10;0.10;;;;;;;;;;5025608;28;20353;-70
2022/12/13 07:33:04;;;;;;;0.00;0.00;;;;;;;;;;5047039;28;20032;-69
2022/12/13 07:35:31;;;;;;;0.10;0.10;;;;;;;;;;5040287;28;20068;-68
2022/12/13 07:37:58;;;;;;;0.10;0.10;;;;;;;;;;5033706;28;20032;-67
2022/12/13 07:40:24;;;;;;;0.00;0.00;;;;;;;;;;5022114;28;20390;-68
2022/12/13 07:42:55;;;;;;;0.00;0.00;;;;;;;;;;5044017;28;20053;-68
2022/12/13 07:45:21;;;;;;;0.00;0.00;;;;;;;;;;5045920;28;20028;-68
2022/12/13 07:47:48;;;;;;;0.10;0.10;;;;;;;;;;5027448;28;20029;-68
2022/12/13 07:50:14;;;;;;;0.10;0.10;;;;;;;;;;5028554;28;20025;-68
2022/12/13 07:52:41;;;;;;;0.10;0.10;;;;;;;;;;5024249;28;20030;-68
2022/12/13 07:55:08;;;;;;;0.10;0.10;;;;;;;;;;5048156;28;20029;-68
2022/12/13 07:57:34;;;;;;;0.10;0.10;;;;;;;;;;5045979;28;20025;-68
2022/12/13 08:00:01;;;;;;;0.00;0.00;;;;;;;;;;5027239;28;20051;-68
2022/12/13 08:02:27;;;;;;;0.10;0.10;;;;;;;;;;5031702;28;20037;-71
2022/12/13 08:04:54;;;;;;;0.00;0.00;;;;;;;;;;5048686;28;20061;-68
2022/12/13 08:07:20;;;;;;;0.10;0.10;;;;;;;;;;5031081;28;20487;-66
2022/12/13 08:09:46;;;;;;;0.00;0.00;;;;;;;;;;5050524;28;20028;-68
2022/12/13 08:12:12;;;;;;;0.10;0.10;;;;;;;;;;5033694;28;20037;-68
2022/12/13 08:14:39;;;;;;;0.00;0.00;;;;;;;;;;5047986;28;20404;-68
2022/12/13 08:17:05;;;;;;;0.03;0.03;;;;;;;;;;5053826;28;20024;-69
2022/12/13 08:19:31;;;;;;;0.10;0.10;;;;;;;;;;5029054;28;20049;-69
2022/12/13 08:21:58;;;;;;;0.10;0.10;;;;;;;;;;5014323;28;20053;-68
2022/12/13 08:24:25;;;;;;;0.03;0.03;;;;;;;;;;5020425;28;20113;-72
2022/12/13 08:26:52;;;;;;;0.10;0.10;;;;;;;;;;5005709;28;20029;-72
2022/12/13 08:29:18;;;;;;;0.10;0.10;;;;;;;;;;5011479;28;20391;-71
2022/12/13 08:31:44;;;;;;;0.10;0.10;;;;;;;;;;5010429;28;20033;-70
2022/12/13 08:34:11;;;;;;;0.00;0.00;;;;;;;;;;5014314;28;20028;-70
2022/12/13 08:36:37;;;;;;;0.00;0.00;;;;;;;;;;5007863;28;20033;-70
2022/12/13 08:39:03;;;;;;;0.10;0.10;;;;;;;;;;5028882;28;20349;-70
2022/12/13 08:41:30;;;;;;;0.10;0.10;;;;;;;;;;5015796;28;20034;-73
2022/12/13 08:43:56;;;;;;;0.10;0.10;;;;;;;;;;5009611;28;20026;-72
2022/12/13 08:46:22;;;;;;;0.10;0.10;;;;;;;;;;5013261;28;20026;-70
2022/12/13 08:48:49;;;;;;;0.10;0.10;;;;;;;;;;5008785;28;20029;-71
2022/12/13 08:51:16;;;;;;;0.10;0.10;;;;;;;;;;5006063;28;20141;-71
2022/12/13 08:53:43;;;;;;;0.07;0.07;;;;;;;;;;5023443;28;20053;-70
2022/12/13 08:56:12;;;;;;;0.10;0.10;;;;;;;;;;5006562;28;20037;-71
2022/12/13 08:58:39;;;;;;;0.00;0.00;;;;;;;;;;5009355;28;20976;-73
2022/12/13 09:01:06;;;;;;;0.10;0.10;;;;;;;;;;5025363;28;20340;-68
2022/12/13 09:03:32;;;;;;;0.10;0.10;;;;;;;;;;5027504;28;20045;-68
2022/12/13 09:06:06;;;;;;;0.03;0.03;;;;;;;;;;5007959;28;20029;-74
2022/12/13 09:08:32;;;;;;;0.00;0.00;;;;;;;;;;5024943;28;20046;-68
2022/12/13 09:10:59;;;;;;;0.00;0.00;;;;;;;;;;5003685;28;20021;-68
2022/12/13 09:13:26;;;;;;;0.00;0.00;;;;;;;;;;5024199;28;20036;-68
2022/12/13 09:15:53;;;;;;;0.00;0.00;;;;;;;;;;5008117;28;20034;-68
2022/12/13 09:18:19;;;;;;;0.00;0.00;;;;;;;;;;5008061;28;20068;-68
2022/12/13 09:20:46;;;;;;;0.00;0.00;;;;;;;;;;5029904;28;20094;-67
2022/12/13 09:23:12;;;;;;;0.00;0.00;;;;;;;;;;5023075;28;20026;-67
2022/12/13 09:25:38;;;;;;;0.00;0.00;;;;;;;;;;5030160;28;20406;-69
2022/12/13 09:28:06;;;;;;;0.10;0.10;;;;;;;;;;5028016;28;20029;-70
2022/12/13 09:30:33;;;;;;;0.10;0.10;;;;;;;;;;5025544;28;20055;-68
2022/12/13 09:32:59;;;;;;;0.10;0.10;;;;;;;;;;5040596;28;20021;-67
2022/12/13 09:35:25;;;;;;;0.10;0.10;;;;;;;;;;5025722;28;20025;-69
2022/12/13 09:37:52;;;;;;;0.00;0.00;;;;;;;;;;5025219;28;20025;-70
2022/12/13 09:40:26;;;;;;;0.10;0.10;;;;;;;;;;5026081;28;20025;-69
2022/12/13 09:42:53;;;;;;;0.00;0.00;;;;;;;;;;5017534;28;20088;-69
2022/12/13 09:45:20;;;;;;;0.00;0.00;;;;;;;;;;5023390;28;20031;-67
2022/12/13 09:47:47;;;;;;;0.00;0.00;;;;;;;;;;5042690;28;20561;-68
2022/12/13 09:50:15;;;;;;;0.03;0.03;;;;;;;;;;5043161;28;20024;-69
2022/12/13 09:52:43;;;;;;;0.10;0.10;;;;;;;;;;5025528;28;20033;-69
2022/12/13 09:55:20;;;;;;;0.00;0.00;;;;;;;;;;5029154;28;20037;-71
2022/12/13 09:57:47;;;;;;;0.10;0.10;;;;;;;;;;5046486;28;20061;-70
2022/12/13 10:00:15;;;;;;;0.00;0.00;;;;;;;;;;5044668;28;20040;-70
2022/12/13 10:02:58;;;;;;;0.10;0.10;;;;;;;;;;5043703;28;20025;-69
2022/12/13 10:05:31;;;;;;;0.00;0.00;;;;;;;;;;5027223;28;21039;-69
2022/12/13 10:07:59;;;;;;;0.00;0.00;;;;;;;;;;5045257;28;20049;-69
2022/12/13 10:10:26;;;;;;;0.00;0.00;;;;;;;;;;5024802;28;20479;-69
2022/12/13 10:12:55;;;;;;;0.00;0.00;;;;;;;;;;5052261;28;20025;-69
2022/12/13 10:15:23;;;;;;;0.00;0.00;;;;;;;;;;5045887;28;20079;-74
2022/12/13 10:17:49;;;;;;;0.00;0.00;;;;;;;;;;5038042;28;20132;-71
2022/12/13 10:20:18;;;;;;;0.03;0.03;;;;;;;;;;5029320;28;20025;-70
2022/12/13 10:22:44;;;;;;;0.00;0.00;;;;;;;;;;5027772;28;20425;-70
2022/12/13 10:25:12;;;;;;;0.00;0.00;;;;;;;;;;5030589;28;20052;-69
2022/12/13 10:27:40;;;;;;;0.10;0.10;;;;;;;;;;5027839;28;20426;-68
2022/12/13 10:30:15;;;;;;;0.00;0.00;;;;;;;;;;5047624;28;20051;-68
2022/12/13 10:32:44;;;;;;;0.00;0.00;;;;;;;;;;5027164;28;20059;-68
2022/12/13 10:35:29;;;;;;;0.00;0.00;;;;;;;;;;5031769;28;20047;-68
2022/12/13 10:37:57;;;;;;;0.03;0.03;;;;;;;;;;5039398;28;20029;-68
2022/12/13 10:40:30;;;;;;;0.00;0.00;;;;;;;;;;5027374;28;20029;-69
2022/12/13 10:43:11;;;;;;;0.00;0.00;;;;;;;;;;5050408;28;20032;-67
2022/12/13 10:45:38;;;;;;;0.00;0.00;;;;;;;;;;5044394;28;20025;-67
2022/12/13 10:48:04;;;;;;;0.00;0.00;;;;;;;;;;5044031;28;20478;-67
2022/12/13 10:50:31;;;;;;;0.00;0.00;;;;;;;;;;5042411;28;20028;-70
2022/12/13 10:52:59;;;;;;;0.00;0.00;;;;;;;;;;5044019;28;20116;-70
2022/12/13 10:55:36;;;;;;;0.00;0.00;;;;;;;;;;5029895;28;20037;-68
2022/12/13 10:58:08;;;;;;;0.00;0.00;;;;;;;;;;5046131;28;20027;-71
2022/12/13 11:00:37;;;;;;;0.00;0.00;;;;;;;;;;5031770;28;20150;-69
2022/12/13 11:03:03;;;;;;;0.00;0.00;;;;;;;;;;5042206;28;20040;-67
2022/12/13 11:05:34;;;;;;;0.00;0.00;;;;;;;;;;5029469;28;20033;-68
2022/12/13 11:08:14;;;;;;;0.10;0.10;;;;;;;;;;5042152;28;20383;-66
2022/12/13 11:10:41;;;;;;;0.00;0.00;;;;;;;;;;5026409;28;20029;-67
2022/12/13 11:13:08;;;;;;;0.00;0.00;;;;;;;;;;5044640;28;20036;-67
2022/12/13 11:15:37;;;;;;;0.00;0.00;;;;;;;;;;5039597;28;20499;-67
2022/12/13 11:18:19;;;;;;;0.00;0.00;;;;;;;;;;5028980;28;20055;-69
2022/12/13 11:20:57;;;;;;;0.00;0.00;;;;;;;;;;5031053;28;20041;-67
2022/12/13 11:23:43;;;;;;;0.10;0.10;;;;;;;;;;5048540;28;20104;-69
2022/12/13 11:26:15;;;;;;;0.10;0.10;;;;;;;;;;5049666;28;20071;-68
2022/12/13 11:28:44;;;;;;;0.00;0.00;;;;;;;;;;5046727;28;20395;-68
2022/12/13 11:31:11;;;;;;;0.00;0.00;;;;;;;;;;5046909;28;20479;-68
2022/12/13 11:33:56;;;;;;;0.00;0.00;;;;;;;;;;5050181;28;20474;-68
2022/12/13 11:36:29;;;;;;;0.00;0.00;;;;;;;;;;5044492;28;20056;-68
2022/12/13 11:39:06;;;;;;;0.00;0.00;;;;;;;;;;5049858;28;20149;-66
2022/12/13 11:41:38;;;;;;;0.00;0.00;;;;;;;;;;5051638;28;20029;-67
2022/12/13 11:44:17;;;;;;;0.00;0.00;;;;;;;;;;5050599;28;20029;-70
2022/12/13 11:46:49;;;;;;;0.00;0.00;;;;;;;;;;5047451;28;20100;-68
2022/12/13 11:49:17;;;;;;;0.00;0.00;;;;;;;;;;5048938;28;20059;-67
2022/12/13 11:51:53;;;;;;;0.00;0.00;;;;;;;;;;5050623;28;20029;-68
2022/12/13 11:54:25;;;;;;;0.00;0.00;;;;;;;;;;5046421;28;20029;-70
2022/12/13 11:56:54;;;;;;;0.00;0.00;;;;;;;;;;5047005;28;20084;-67
2022/12/13 11:59:23;;;;;;;0.00;0.00;;;;;;;;;;5048461;28;20043;-68
2022/12/13 12:01:52;;;;;;;0.00;0.00;;;;;;;;;;5047063;28;20632;-69
2022/12/13 12:04:35;;;;;;;0.00;0.00;;;;;;;;;;5044764;28;20036;-69
2022/12/13 12:07:15;;;;;;;0.00;0.00;;;;;;;;;;5046567;28;20029;-68
2022/12/13 12:09:50;;;;;;;0.00;0.00;;;;;;;;;;5051811;28;20029;-67
2022/12/13 12:12:19;;;;;;;0.00;0.00;;;;;;;;;;5053611;28;20383;-68
2022/12/13 12:14:45;;;;;;;0.00;0.00;;;;;;;;;;5047047;28;20033;-69
2022/12/13 12:17:13;;;;;;;0.00;0.00;;;;;;;;;;5042046;28;20032;-68
2022/12/13 12:19:42;;;;;;;0.00;0.00;;;;;;;;;;5046326;28;20121;-68
2022/12/13 12:22:08;;;;;;;0.00;0.00;;;;;;;;;;5047471;28;20541;-68
2022/12/13 12:24:55;;;;;;;0.00;0.00;;;;;;;;;;5051538;28;20024;-67
2022/12/13 12:27:21;;;;;;;0.00;0.00;;;;;;;;;;5028641;28;20506;-68
2022/12/13 12:30:07;;;;;;;0.00;0.00;;;;;;;;;;5057285;28;20115;-68
2022/12/13 12:32:40;;;;;;;0.00;0.00;;;;;;;;;;5050031;28;20033;-67
2022/12/13 12:35:07;;;;;;;0.00;0.00;;;;;;;;;;5051214;28;20248;-68
2022/12/13 12:37:48;;;;;;;0.00;0.00;;;;;;;;;;5050522;28;20041;-70
2022/12/13 12:40:31;;;;;;;0.00;0.00;;;;;;;;;;5035273;28;20174;-69
2022/12/13 12:42:57;;;;;;;0.00;0.00;;;;;;;;;;5048804;28;20048;-69
2022/12/13 12:45:27;;;;;;;0.00;0.00;;;;;;;;;;5046285;28;20087;-67
2022/12/13 12:48:07;;;;;;;0.00;0.00;;;;;;;;;;5054119;28;20031;-69
2022/12/13 12:50:33;;;;;;;0.00;0.00;;;;;;;;;;5051719;28;20021;-69
2022/12/13 12:53:06;;;;;;;0.00;0.00;;;;;;;;;;5044410;28;20037;-69
2022/12/13 12:55:33;;;;;;;0.00;0.00;;;;;;;;;;5049364;28;20040;-68
2022/12/13 12:58:04;;;;;;;0.00;0.00;;;;;;;;;;5053530;28;20032;-69
2022/12/13 13:00:38;;;;;;;0.00;0.00;;;;;;;;;;5052923;28;20063;-70
2022/12/13 13:03:25;;;;;;;0.00;0.00;;;;;;;;;;5052349;28;20029;-68
2022/12/13 13:05:57;;;;;;;0.00;0.00;;;;;;;;;;5052266;28;20120;-68
2022/12/13 13:08:28;;;;;;;0.00;0.00;;;;;;;;;;5067317;28;20036;-68
2022/12/13 13:10:56;;;;;;;0.00;0.00;;;;;;;;;;5050993;28;20021;-69
2022/12/13 13:13:35;;;;;;;0.00;0.00;;;;;;;;;;5040256;28;20028;-71
2022/12/13 13:16:01;;;;;;;0.00;0.00;;;;;;;;;;5046737;28;20086;-69
2022/12/13 13:18:46;;;;;;;0.00;0.00;;;;;;;;;;5051951;28;20438;-69
2022/12/13 13:21:31;;;;;;;0.00;0.00;;;;;;;;;;5048006;28;20107;-68
2022/12/13 13:24:14;;;;;;;0.00;0.00;;;;;;;;;;5031970;28;20098;-70
2022/12/13 13:26:41;;;;;;;0.00;0.00;;;;;;;;;;5030817;28;20029;-68
2022/12/13 13:29:21;;;;;;;0.00;0.00;;;;;;;;;;5029456;28;20039;-68
2022/12/13 13:31:58;;;;;;;0.00;0.00;;;;;;;;;;5052213;28;20032;-68
2022/12/13 13:34:25;;;;;;;0.00;0.00;;;;;;;;;;5047099;28;20071;-69
2022/12/13 13:36:54;;;;;;;0.00;0.00;;;;;;;;;;5035149;28;20036;-68
2022/12/13 13:39:33;;;;;;;0.00;0.00;;;;;;;;;;5032918;28;20495;-67
2022/12/13 13:42:05;;;;;;;0.00;0.00;;;;;;;;;;5033672;28;20033;-69
2022/12/13 13:44:32;;;;;;;0.00;0.00;;;;;;;;;;5041079;28;20344;-69
2022/12/13 13:47:14;;;;;;;0.00;0.00;;;;;;;;;;5048589;28;20102;-68
2022/12/13 13:49:59;;;;;;;0.00;0.00;;;;;;;;;;5041538;28;20060;-68
2022/12/13 13:52:44;;;;;;;0.00;0.00;;;;;;;;;;5046260;28;20627;-68
2022/12/13 13:55:16;;;;;;;0.00;0.00;;;;;;;;;;5034875;28;20120;-68
2022/12/13 13:58:01;;;;;;;0.00;0.00;;;;;;;;;;5033018;28;20033;-68
2022/12/13 14:00:33;;;;;;;0.00;0.00;;;;;;;;;;5032533;28;20640;-68
2022/12/13 14:03:00;;;;;;;0.00;0.00;;;;;;;;;;5048823;28;20061;-68
2022/12/13 14:05:32;;;;;;;0.00;0.00;;;;;;;;;;5030368;28;20026;-67
2022/12/13 14:08:11;;;;;;;0.00;0.00;;;;;;;;;;5048403;28;20557;-71
2022/12/13 14:10:43;;;;;;;0.00;0.00;;;;;;;;;;5052529;28;20024;-72
2022/12/13 14:13:28;;;;;;;0.00;0.00;;;;;;;;;;5051342;28;20688;-70
2022/12/13 14:16:13;;;;;;;0.00;0.00;;;;;;;;;;5027929;28;20041;-69
2022/12/13 14:19:03;;;;;;;0.03;0.03;;;;;;;;;;5033655;28;20048;-69
2022/12/13 14:21:48;;;;;;;0.00;0.00;;;;;;;;;;5042119;28;20049;-66
2022/12/13 14:24:37;;;;;;;0.00;0.00;;;;;;;;;;5050483;28;20033;-66
2022/12/13 14:27:18;;;;;;;0.00;0.00;;;;;;;;;;5051224;28;20056;-65
2022/12/13 14:29:46;;;;;;;0.00;0.00;;;;;;;;;;5051147;28;20193;-65
2022/12/13 14:32:15;;;;;;;0.00;0.00;;;;;;;;;;5051294;28;20021;-68
2022/12/13 14:34:45;;;;;;;0.00;0.00;;;;;;;;;;5052370;28;20025;-67
2022/12/13 14:37:21;;;;;;;0.00;0.00;;;;;;;;;;5052294;28;20048;-68
2022/12/13 14:39:48;;;;;;;0.00;0.00;;;;;;;;;;5050512;28;20029;-67
2022/12/13 14:42:21;;;;;;;0.00;0.00;;;;;;;;;;5034613;28;20053;-66
2022/12/13 14:44:47;;;;;;;0.00;0.00;;;;;;;;;;5051757;28;20024;-65
2022/12/13 14:47:14;;;;;;;0.00;0.00;;;;;;;;;;5052473;28;20060;-66
2022/12/13 14:49:49;;;;;;;0.00;0.00;;;;;;;;;;5033638;28;20029;-66
2022/12/13 14:52:32;;;;;;;0.00;0.00;;;;;;;;;;5037270;28;20028;-67
2022/12/13 14:55:00;;;;;;;0.00;0.00;;;;;;;;;;5037821;28;20458;-66
2022/12/13 14:57:28;;;;;;;0.00;0.00;;;;;;;;;;5038273;28;20064;-67
2022/12/13 14:59:55;;;;;;;0.00;0.00;;;;;;;;;;5038243;28;20391;-67
2022/12/13 15:02:23;;;;;;;0.00;0.00;;;;;;;;;;5038264;28;20049;-67
2022/12/13 15:04:52;;;;;;;0.00;0.00;;;;;;;;;;5056177;28;20032;-66